Hilltop Mall, California
Current Conditions -  °F | °C
As of 7:53 PM on Sunday 23 Nov 2014 (Local Time) from KCCR Reporting Station
Clear Clear  
Wind Chill: 50°   Ceiling: Unl
Heat Index: 50°   Visibility: 10mi
Dew Point: 40°   Wind: 3mph
Humidity: 68%   Direction: 140°SE
Pressure: 30.3"   Gusts: NA
Location:  37.979°N, 122.336°W
Report Text: KCCR 240353Z 14003KT 10SM CLR 10/04 A3030 RMK AO2 SLP246 T01000044
Loading
Personal Weather Stations






























Interactive Weather Map New forecast layout! Learn more

10-Day Weather Forecast

Advertisements
Track Severe Weather on mobile